Terminal Aerodrome Forecast
Issued by NWS Duluth, MN

Home | Current Version | Previous Version | Text Only | Print | Product List | Glossary On
Versions: 1 2 3 4 5 6 7 8 9 10 11 12 13 14 15 16
000
FTUS43 KDLH 222333
TAFINL
TAF
KINL 222333Z 2300/2324 29009G16KT P6SM VCSH BKN070
      TEMPO 2300/2302 6SM TSRA BKN030CB
     FM230300 30005KT P6SM VCSH BKN040
     FM230600 VRB03KT 4SM BR SCT015 BKN030
      TEMPO 2309/2313 BKN015
     FM231500 03008KT P6SM SCT030=

USA.gov is the U.S. government's official web portal to all federal, state and local government web resources and services.